createdAt,value
2022-12-04T00:01:06.464Z,3.55
2022-12-04T00:03:33.647Z,6.32
2022-12-04T00:06:13.159Z,3.25
2022-12-04T00:08:40.800Z,4.30
2022-12-04T00:11:10.215Z,4.75
2022-12-04T00:13:38.124Z,5.40
2022-12-04T00:16:07.600Z,3.13
2022-12-04T00:18:35.629Z,3.47
2022-12-04T00:21:10.087Z,2.45
2022-12-04T00:23:38.549Z,4.20
2022-12-04T00:26:17.644Z,5.35
2022-12-04T00:28:45.231Z,4.63
2022-12-04T00:31:20.464Z,5.13
2022-12-04T00:33:47.728Z,5.40
2022-12-04T00:36:17.775Z,3.40
2022-12-04T00:38:45.014Z,4.40
2022-12-04T00:41:17.544Z,4.95
2022-12-04T00:43:45.869Z,3.92
2022-12-04T00:46:13.261Z,3.88
2022-12-04T00:48:40.866Z,2.78
2022-12-04T00:51:26.744Z,6.47
2022-12-04T00:53:53.941Z,3.20
2022-12-04T00:56:24.837Z,4.45
2022-12-04T00:58:53.569Z,3.95
2022-12-04T01:01:22.188Z,3.22
2022-12-04T01:03:49.758Z,2.13
2022-12-04T01:06:20.109Z,4.25
2022-12-04T01:08:47.173Z,3.85
2022-12-04T01:11:14.053Z,3.30
2022-12-04T01:13:41.035Z,2.97
2022-12-04T01:16:08.358Z,3.13
2022-12-04T01:18:35.273Z,3.78
2022-12-04T01:21:02.141Z,2.95
2022-12-04T01:23:28.965Z,4.13
2022-12-04T01:25:57.222Z,4.82
2022-12-04T01:28:25.042Z,5.32
2022-12-04T01:30:58.039Z,3.40
2022-12-04T01:33:24.905Z,4.70
2022-12-04T01:35:56.848Z,2.65
2022-12-04T01:38:24.661Z,4.60
2022-12-04T01:40:54.854Z,3.25
2022-12-04T01:43:23.229Z,4.15
2022-12-04T01:45:55.415Z,5.07
2022-12-04T01:48:33.155Z,4.68
2022-12-04T01:51:19.148Z,4.60
2022-12-04T01:53:50.516Z,4.70
2022-12-04T01:56:19.727Z,2.95
2022-12-04T01:58:51.047Z,3.60
2022-12-04T02:01:18.131Z,6.05
2022-12-04T02:03:45.010Z,7.10
2022-12-04T02:06:12.264Z,5.47
2022-12-04T02:08:39.534Z,4.72
2022-12-04T02:11:35.010Z,5.35
2022-12-04T02:14:08.276Z,3.35
2022-12-04T02:16:45.658Z,2.90
2022-12-04T02:19:42.906Z,6.32
2022-12-04T02:22:36.667Z,4.38
2022-12-04T02:25:24.242Z,3.38
2022-12-04T02:28:04.208Z,3.13
2022-12-04T02:30:34.389Z,3.47
2022-12-04T02:33:08.175Z,4.88
2022-12-04T02:35:42.627Z,4.82
2022-12-04T02:38:25.828Z,5.30
2022-12-04T02:41:06.195Z,3.15
2022-12-04T02:43:40.172Z,5.93
2022-12-04T02:46:22.677Z,5.93
2022-12-04T02:48:53.659Z,4.47
2022-12-04T02:51:24.466Z,3.28
2022-12-04T02:53:56.107Z,4.97
2022-12-04T02:56:28.995Z,6.65
2022-12-04T02:59:07.118Z,5.03
2022-12-04T03:01:35.899Z,5.27
2022-12-04T03:04:16.907Z,3.28
2022-12-04T03:06:47.386Z,5.47
2022-12-04T03:09:28.579Z,4.80
2022-12-04T03:12:12.486Z,5.95
2022-12-04T03:14:50.476Z,3.58
2022-12-04T03:17:51.731Z,4.22
2022-12-04T03:20:20.499Z,7.38
2022-12-04T03:22:50.523Z,6.47
2022-12-04T03:25:17.490Z,5.75
2022-12-04T03:28:08.197Z,5.63
2022-12-04T03:30:46.263Z,5.45
2022-12-04T03:33:20.269Z,3.00
2022-12-04T03:35:59.848Z,2.00
2022-12-04T03:38:41.295Z,4.45
2022-12-04T03:41:33.453Z,4.35
2022-12-04T03:44:13.485Z,2.88
2022-12-04T03:46:51.153Z,4.28
2022-12-04T03:49:21.942Z,4.70
2022-12-04T03:52:00.543Z,3.75
2022-12-04T03:54:50.249Z,4.43
2022-12-04T03:57:21.571Z,4.45
2022-12-04T04:00:11.577Z,4.53
2022-12-04T04:02:43.163Z,10.13
2022-12-04T04:05:12.420Z,6.00
2022-12-04T04:07:54.773Z,4.32
2022-12-04T04:10:25.455Z,4.32
2022-12-04T04:13:21.091Z,3.08
2022-12-04T04:16:13.677Z,3.50
2022-12-04T04:19:01.293Z,5.00
2022-12-04T04:21:51.170Z,6.03
2022-12-04T04:24:45.465Z,3.85
2022-12-04T04:27:12.537Z,5.30
2022-12-04T04:29:39.689Z,5.10
2022-12-04T04:32:35.798Z,4.70
2022-12-04T04:35:17.445Z,3.70
2022-12-04T04:38:11.950Z,3.70
2022-12-04T04:40:54.181Z,7.78
2022-12-04T04:43:37.127Z,3.97
2022-12-04T04:46:13.122Z,6.07
2022-12-04T04:48:43.934Z,5.07
2022-12-04T04:51:11.685Z,5.93
2022-12-04T04:53:47.229Z,5.53
2022-12-04T04:56:14.622Z,6.00
2022-12-04T04:58:42.959Z,3.88
2022-12-04T05:01:13.748Z,4.72
2022-12-04T05:03:40.957Z,6.78
2022-12-04T05:06:07.879Z,6.63
2022-12-04T05:08:35.940Z,7.13
2022-12-04T05:11:03.861Z,5.15
2022-12-04T05:13:31.621Z,7.40
2022-12-04T05:16:00.130Z,5.28
2022-12-04T05:18:27.760Z,7.82
2022-12-04T05:20:55.117Z,5.18
2022-12-04T05:23:22.649Z,7.75
2022-12-04T05:25:49.951Z,7.22
2022-12-04T05:28:17.308Z,4.75
2022-12-04T05:30:44.596Z,4.70
2022-12-04T05:33:11.916Z,6.93
2022-12-04T05:35:39.242Z,5.20
2022-12-04T05:38:06.575Z,5.90
2022-12-04T05:40:33.909Z,6.15
2022-12-04T05:43:01.280Z,6.93
2022-12-04T05:45:28.626Z,6.70
2022-12-04T05:47:55.924Z,7.95
2022-12-04T05:50:23.180Z,7.47
2022-12-04T05:52:50.474Z,7.68
2022-12-04T05:55:17.762Z,6.60
2022-12-04T05:57:45.038Z,4.50
2022-12-04T06:00:12.714Z,3.80
2022-12-04T06:02:40.132Z,5.75
2022-12-04T06:05:07.831Z,5.55
2022-12-04T06:07:35.161Z,5.60
2022-12-04T06:10:02.606Z,5.28
2022-12-04T06:12:30.802Z,7.50
2022-12-04T06:14:58.164Z,5.43
2022-12-04T06:17:25.438Z,3.83
2022-12-04T06:19:53.790Z,4.93
2022-12-04T06:22:21.374Z,6.05
2022-12-04T06:24:48.790Z,4.82
2022-12-04T06:27:31.458Z,4.75
2022-12-04T06:29:59.077Z,4.20
2022-12-04T06:32:26.527Z,5.32
2022-12-04T06:34:54.610Z,5.10
2022-12-04T06:37:22.455Z,4.77
2022-12-04T06:39:50.009Z,4.18
2022-12-04T06:42:17.402Z,5.80
2022-12-04T06:44:44.669Z,7.60
2022-12-04T06:47:11.985Z,5.05
2022-12-04T06:49:39.377Z,8.23
2022-12-04T06:52:06.667Z,6.85
2022-12-04T06:54:34.293Z,4.82
2022-12-04T06:57:01.551Z,8.40
2022-12-04T06:59:28.829Z,4.53
2022-12-04T07:01:56.182Z,7.43
2022-12-04T07:04:24.786Z,8.20
2022-12-04T07:06:52.068Z,8.07
2022-12-04T07:09:19.326Z,8.80
2022-12-04T07:11:47.036Z,8.77
2022-12-04T07:14:15.102Z,7.07
2022-12-04T07:16:42.797Z,6.63
2022-12-04T07:19:14.432Z,8.90
2022-12-04T07:21:42.291Z,10.43
2022-12-04T07:24:15.027Z,10.52
2022-12-04T07:26:42.339Z,5.22
2022-12-04T07:29:10.795Z,7.32
2022-12-04T07:31:38.846Z,5.78
2022-12-04T07:34:06.299Z,5.83
2022-12-04T07:36:33.647Z,9.82
2022-12-04T07:39:00.928Z,8.68
2022-12-04T07:41:28.290Z,12.25
2022-12-04T07:43:55.670Z,10.43
2022-12-04T07:46:25.848Z,9.77
2022-12-04T07:48:53.366Z,9.32
2022-12-04T07:51:22.473Z,10.95
2022-12-04T07:56:18.255Z,8.48
2022-12-04T07:58:45.709Z,7.53
2022-12-04T08:01:15.630Z,9.13
2022-12-04T08:03:48.081Z,11.07
2022-12-04T08:06:16.839Z,10.23
2022-12-04T08:08:44.325Z,7.18
2022-12-04T08:11:13.364Z,7.15
2022-12-04T08:16:08.598Z,7.97
2022-12-04T08:18:35.923Z,7.78
2022-12-04T08:21:04.357Z,6.53
2022-12-04T08:23:31.669Z,6.85
2022-12-04T08:26:00.512Z,7.57
2022-12-04T08:28:28.113Z,3.67
2022-12-04T08:30:55.685Z,9.30
2022-12-04T08:33:23.167Z,9.88
2022-12-04T08:35:50.408Z,6.68
2022-12-04T08:38:17.828Z,5.20
2022-12-04T08:40:45.199Z,5.60
2022-12-04T08:43:12.536Z,6.85
2022-12-04T08:45:39.850Z,7.68
2022-12-04T08:48:07.487Z,7.95
2022-12-04T08:50:34.774Z,5.40
2022-12-04T08:53:02.097Z,7.72
2022-12-04T08:55:29.378Z,8.05
2022-12-04T08:57:56.656Z,5.78
2022-12-04T09:00:26.132Z,8.13
2022-12-04T09:02:53.813Z,5.32
2022-12-04T09:05:21.585Z,7.35
2022-12-04T09:07:50.485Z,5.78
2022-12-04T09:10:18.212Z,7.72
2022-12-04T09:12:45.561Z,5.47
2022-12-04T09:15:12.896Z,7.85
2022-12-04T09:17:40.645Z,8.10
2022-12-04T09:20:08.978Z,9.13
2022-12-04T09:23:02.249Z,4.97
2022-12-04T09:25:25.135Z,6.10
2022-12-04T09:27:52.900Z,5.40
2022-12-04T09:30:20.679Z,7.82
2022-12-04T09:32:48.379Z,6.90
2022-12-04T09:35:16.063Z,7.13
2022-12-04T09:37:43.791Z,7.30
2022-12-04T09:40:37.723Z,6.32
2022-12-04T09:43:20.039Z,5.20
2022-12-04T09:45:49.298Z,7.32
2022-12-04T09:48:19.214Z,9.38
2022-12-04T09:50:48.724Z,6.28
2022-12-04T09:53:23.032Z,6.22
2022-12-04T09:56:04.781Z,7.90
2022-12-04T09:58:47.116Z,5.85
2022-12-04T10:01:23.441Z,5.25
2022-12-04T10:03:51.560Z,6.32
2022-12-04T10:06:22.582Z,6.07
2022-12-04T10:08:59.205Z,5.38
2022-12-04T10:11:50.916Z,9.40
2022-12-04T10:14:30.581Z,6.20
2022-12-04T10:17:07.461Z,4.20
2022-12-04T10:19:55.118Z,5.18
2022-12-04T10:22:54.084Z,8.50
2022-12-04T10:27:54.747Z,8.57
2022-12-04T10:30:24.300Z,6.97
2022-12-04T10:32:56.969Z,7.00
2022-12-04T10:35:29.507Z,4.43
2022-12-04T10:38:03.386Z,6.57
2022-12-04T10:40:40.956Z,5.38
2022-12-04T10:43:27.077Z,6.18
2022-12-04T10:45:54.328Z,8.38
2022-12-04T10:48:34.347Z,6.22
2022-12-04T10:51:01.691Z,5.28
2022-12-04T10:53:35.891Z,6.55
2022-12-04T10:56:18.191Z,5.90
2022-12-04T10:59:11.672Z,4.40
2022-12-04T11:01:39.146Z,6.05
2022-12-04T11:04:20.793Z,6.68
2022-12-04T11:06:50.380Z,7.40
2022-12-04T11:09:22.692Z,5.45
2022-12-04T11:11:50.286Z,6.65
2022-12-04T11:14:20.823Z,4.75
2022-12-04T11:16:50.128Z,5.10
2022-12-04T11:19:23.614Z,4.78
2022-12-04T11:21:51.826Z,4.75
2022-12-04T11:24:28.692Z,5.35
2022-12-04T11:26:57.105Z,5.72
2022-12-04T11:29:31.422Z,7.18
2022-12-04T11:32:07.519Z,5.40
2022-12-04T11:34:41.572Z,7.25
2022-12-04T11:37:19.935Z,6.15
2022-12-04T11:39:47.893Z,6.82
2022-12-04T11:42:20.185Z,6.70
2022-12-04T11:44:58.243Z,8.95
2022-12-04T11:47:26.921Z,5.30
2022-12-04T11:50:04.999Z,5.65
2022-12-04T11:52:59.752Z,5.03
2022-12-04T11:55:34.851Z,4.68
2022-12-04T11:58:02.183Z,7.18
2022-12-04T12:00:38.224Z,7.30
2022-12-04T12:03:05.847Z,6.03
2022-12-04T12:05:33.244Z,5.90
2022-12-04T12:08:02.867Z,5.30
2022-12-04T12:10:45.724Z,8.40
2022-12-04T12:13:30.363Z,5.68
2022-12-04T12:16:00.843Z,5.28
2022-12-04T12:18:47.148Z,6.93
2022-12-04T12:21:27.919Z,9.15
2022-12-04T12:24:11.150Z,6.63
2022-12-04T12:26:45.273Z,6.13
2022-12-04T12:29:22.799Z,7.10
2022-12-04T12:32:25.394Z,7.05
2022-12-04T12:34:53.228Z,5.65
2022-12-04T12:37:36.168Z,9.68
2022-12-04T12:40:06.909Z,6.45
2022-12-04T12:42:44.355Z,6.90
2022-12-04T12:45:41.679Z,8.63
2022-12-04T12:48:18.853Z,5.22
2022-12-04T12:51:09.053Z,8.30
2022-12-04T12:53:41.448Z,6.93
2022-12-04T12:58:50.246Z,7.50
2022-12-04T13:01:20.902Z,7.90
2022-12-04T13:04:12.374Z,9.38
2022-12-04T13:06:41.881Z,10.00
2022-12-04T13:09:32.085Z,7.10
2022-12-04T13:12:13.494Z,7.88
2022-12-04T13:14:43.535Z,8.40
2022-12-04T13:17:39.451Z,6.07
2022-12-04T13:20:12.632Z,6.03
2022-12-04T13:22:49.625Z,5.30
2022-12-04T13:25:36.093Z,7.13
2022-12-04T13:28:03.447Z,6.68
2022-12-04T13:30:46.247Z,6.68
2022-12-04T13:33:13.537Z,6.00
2022-12-04T13:35:40.979Z,4.22
2022-12-04T13:38:08.264Z,6.53
2022-12-04T13:40:39.138Z,5.97
2022-12-04T13:43:30.884Z,5.03
2022-12-04T13:45:59.860Z,6.28
2022-12-04T13:51:40.746Z,6.05
2022-12-04T13:54:14.327Z,5.57
2022-12-04T13:56:43.448Z,4.95
2022-12-04T14:02:06.413Z,3.35
2022-12-04T14:04:56.626Z,4.75
2022-12-04T14:07:27.410Z,6.60
2022-12-04T14:09:55.584Z,6.95
2022-12-04T14:12:44.466Z,3.40
2022-12-04T14:17:41.196Z,5.85
2022-12-04T14:20:28.287Z,5.07
2022-12-04T14:22:56.371Z,4.35
2022-12-04T14:25:26.443Z,4.20
2022-12-04T14:27:54.471Z,4.97
2022-12-04T14:30:27.092Z,6.22
2022-12-04T14:33:00.455Z,3.83
2022-12-04T14:35:28.934Z,5.00
2022-12-04T14:38:02.186Z,6.32
2022-12-04T14:40:31.852Z,4.72
2022-12-04T14:42:59.534Z,4.68
2022-12-04T14:45:45.518Z,4.47
2022-12-04T14:48:25.363Z,5.03
2022-12-04T14:51:00.774Z,3.90
2022-12-04T14:54:07.799Z,5.07
2022-12-04T14:56:56.609Z,3.25
2022-12-04T14:59:29.139Z,4.20
2022-12-04T15:01:56.931Z,4.78
2022-12-04T15:04:32.557Z,3.35
2022-12-04T15:07:01.069Z,1.80
2022-12-04T15:09:48.316Z,2.65
2022-12-04T15:12:37.374Z,4.82
2022-12-04T15:15:14.248Z,3.08
2022-12-04T15:17:42.247Z,1.70
2022-12-04T15:20:17.431Z,1.92
2022-12-04T15:22:45.605Z,3.92
2022-12-04T15:25:20.892Z,3.20
2022-12-04T15:27:49.765Z,3.65
2022-12-04T15:30:18.703Z,2.88
2022-12-04T15:32:47.928Z,4.68
2022-12-04T15:35:36.292Z,3.45
2022-12-04T15:38:04.341Z,4.53
2022-12-04T15:40:32.427Z,3.67
2022-12-04T15:43:18.014Z,1.53
2022-12-04T15:45:45.986Z,2.75
2022-12-04T15:48:24.555Z,5.82
2022-12-04T15:51:18.534Z,11.38
2022-12-04T15:53:47.610Z,3.88
2022-12-04T15:58:54.815Z,4.95
2022-12-04T16:01:26.232Z,4.68
2022-12-04T16:03:55.604Z,3.17
2022-12-04T16:06:31.942Z,4.13
2022-12-04T16:09:16.299Z,2.58
2022-12-04T16:11:45.386Z,1.92
2022-12-04T16:16:42.624Z,5.22
2022-12-04T16:19:18.490Z,5.57
2022-12-04T16:21:47.109Z,7.57
2022-12-04T16:24:16.003Z,5.18
2022-12-04T16:26:44.931Z,3.67
2022-12-04T16:29:13.052Z,5.82
2022-12-04T16:31:40.943Z,5.43
2022-12-04T16:34:10.166Z,7.28
2022-12-04T16:36:39.013Z,4.38
2022-12-04T16:39:07.135Z,5.60
2022-12-04T16:41:34.528Z,3.50
2022-12-04T16:44:02.747Z,4.20
2022-12-04T16:46:31.199Z,4.88
2022-12-04T16:49:02.739Z,2.20
2022-12-04T16:51:33.639Z,2.88
2022-12-04T16:54:01.407Z,2.33
2022-12-04T16:56:29.250Z,3.63
2022-12-04T16:58:57.065Z,2.45
2022-12-04T17:01:26.203Z,2.70
2022-12-04T17:06:21.538Z,4.40
2022-12-04T17:08:49.373Z,2.17
2022-12-04T17:11:18.785Z,4.35
2022-12-04T17:13:46.981Z,4.05
2022-12-04T17:16:15.349Z,3.70
2022-12-04T17:18:43.366Z,3.60
2022-12-04T17:21:12.276Z,2.20
2022-12-04T17:23:40.213Z,3.72
2022-12-04T17:26:09.434Z,2.63
2022-12-04T17:28:38.203Z,4.60
2022-12-04T17:31:06.685Z,3.15
2022-12-04T17:33:34.434Z,2.28
2022-12-04T17:36:03.930Z,2.17
2022-12-04T17:38:33.753Z,2.20
2022-12-04T17:41:02.179Z,3.63
2022-12-04T17:43:30.423Z,2.70
2022-12-04T17:45:58.524Z,3.05
2022-12-04T17:48:29.235Z,3.80
2022-12-04T17:51:08.808Z,3.63
2022-12-04T17:53:36.892Z,2.85
2022-12-04T17:56:05.467Z,2.33
2022-12-04T17:58:33.826Z,2.58
2022-12-04T18:01:05.469Z,2.55
2022-12-04T18:03:33.304Z,2.38
2022-12-04T18:06:02.007Z,3.50
2022-12-04T18:08:30.733Z,1.30
2022-12-04T18:10:58.101Z,4.00
2022-12-04T18:13:25.938Z,4.05
2022-12-04T18:15:53.934Z,1.83
2022-12-04T18:18:21.771Z,4.82
2022-12-04T18:20:50.159Z,2.55
2022-12-04T18:23:19.032Z,3.33
2022-12-04T18:25:57.075Z,2.75
2022-12-04T18:28:26.277Z,3.00
2022-12-04T18:30:54.559Z,3.22
2022-12-04T18:33:22.220Z,1.77
2022-12-04T18:35:56.599Z,1.25
2022-12-04T18:38:25.429Z,2.00
2022-12-04T18:40:54.588Z,2.17
2022-12-04T18:48:35.735Z,3.60
2022-12-04T18:51:03.709Z,4.70
2022-12-04T18:53:31.633Z,4.85
2022-12-04T18:56:02.865Z,5.28
2022-12-04T18:58:31.717Z,5.93
2022-12-04T19:01:13.135Z,3.63
2022-12-04T19:03:41.003Z,5.72
2022-12-04T19:06:09.711Z,3.40
2022-12-04T19:08:41.545Z,3.60
2022-12-04T19:11:15.623Z,1.85
2022-12-04T19:13:43.078Z,6.25
2022-12-04T19:16:16.436Z,4.50
2022-12-04T19:18:48.108Z,4.88
2022-12-04T19:21:20.437Z,4.82
2022-12-04T19:23:53.733Z,3.80
2022-12-04T19:26:22.023Z,3.85
2022-12-04T19:28:52.292Z,2.75
2022-12-04T19:31:21.319Z,3.13
2022-12-04T19:36:18.501Z,5.38
2022-12-04T19:38:46.850Z,4.10
2022-12-04T19:41:16.077Z,2.53
2022-12-04T19:43:45.884Z,2.97
2022-12-04T19:46:14.721Z,2.33
2022-12-04T19:48:43.130Z,3.40
2022-12-04T19:51:12.973Z,2.03
2022-12-04T19:53:41.423Z,3.03
2022-12-04T19:56:14.023Z,2.42
2022-12-04T19:58:42.046Z,1.85
2022-12-04T20:01:13.044Z,1.73
2022-12-04T20:03:43.688Z,1.55
2022-12-04T20:06:15.269Z,2.42
2022-12-04T20:08:52.583Z,1.30
2022-12-04T20:11:20.389Z,0.82
2022-12-04T20:13:49.249Z,3.20
2022-12-04T20:16:18.658Z,2.22
2022-12-04T20:18:46.603Z,2.60
2022-12-04T20:21:15.182Z,1.80
2022-12-04T20:23:44.582Z,1.65
2022-12-04T20:26:13.416Z,1.10
2022-12-04T20:28:42.009Z,1.80
2022-12-04T20:31:19.802Z,1.55
2022-12-04T20:33:49.025Z,1.48
2022-12-04T20:36:21.115Z,1.40
2022-12-04T20:38:49.380Z,2.03
2022-12-04T20:41:19.023Z,0.45
2022-12-04T20:43:47.552Z,0.80
2022-12-04T20:46:22.976Z,2.10
2022-12-04T20:48:52.346Z,2.05
2022-12-04T20:51:22.685Z,1.98
2022-12-04T20:53:51.061Z,1.23
2022-12-04T20:56:19.191Z,1.52
2022-12-04T20:58:46.559Z,0.57
2022-12-04T21:01:14.778Z,2.10
2022-12-04T21:03:42.223Z,1.55
2022-12-04T21:06:15.382Z,1.67
2022-12-04T21:08:58.946Z,1.02
2022-12-04T21:11:38.507Z,1.65
2022-12-04T21:14:27.708Z,2.58
2022-12-04T21:16:55.299Z,3.55
2022-12-04T21:19:24.165Z,5.55
2022-12-04T21:21:51.883Z,5.70
2022-12-04T21:24:20.306Z,5.45
2022-12-04T21:26:47.395Z,4.28
2022-12-04T21:29:15.211Z,3.42
2022-12-04T21:31:42.737Z,4.30
2022-12-04T21:34:11.410Z,5.53
2022-12-04T21:36:38.747Z,6.57
2022-12-04T21:39:06.615Z,3.08
2022-12-04T21:41:52.576Z,3.13
2022-12-04T21:44:21.259Z,2.65
2022-12-04T21:46:48.956Z,4.35
2022-12-04T21:49:17.672Z,4.28
2022-12-04T21:52:00.536Z,3.53
2022-12-04T21:54:28.170Z,6.28
2022-12-04T21:56:55.543Z,2.97
2022-12-04T21:59:22.940Z,2.67
2022-12-04T22:01:50.435Z,3.45
2022-12-04T22:04:17.915Z,3.95
2022-12-04T22:06:45.250Z,3.53
2022-12-04T22:09:13.525Z,1.08
2022-12-04T22:11:44.058Z,2.42
2022-12-04T22:14:12.126Z,2.33
2022-12-04T22:16:42.885Z,3.03
2022-12-04T22:19:10.796Z,2.13
2022-12-04T22:21:38.299Z,2.15
2022-12-04T22:24:05.937Z,1.33
2022-12-04T22:26:33.401Z,2.20
2022-12-04T22:29:00.736Z,1.17
2022-12-04T22:31:28.737Z,3.28
2022-12-04T22:33:57.173Z,2.90
2022-12-04T22:36:26.136Z,3.50
2022-12-04T22:41:36.640Z,2.58
2022-12-04T22:44:04.392Z,1.50
2022-12-04T22:46:31.737Z,2.22
2022-12-04T22:48:59.364Z,1.92
2022-12-04T22:51:27.476Z,2.67
2022-12-04T22:53:56.220Z,3.30
2022-12-04T22:56:28.859Z,2.08
2022-12-04T22:58:56.446Z,2.72
2022-12-04T23:01:25.199Z,1.33
2022-12-04T23:03:52.901Z,2.00
2022-12-04T23:06:21.293Z,2.10
2022-12-04T23:08:48.613Z,2.17
2022-12-04T23:11:18.589Z,2.08
2022-12-04T23:13:50.662Z,1.48
2022-12-04T23:16:20.267Z,1.48
2022-12-04T23:18:47.939Z,2.42
2022-12-04T23:21:16.859Z,3.95
2022-12-04T23:23:47.137Z,2.53
2022-12-04T23:26:18.692Z,2.50
2022-12-04T23:28:46.168Z,1.40
2022-12-04T23:31:13.749Z,3.45
2022-12-04T23:33:41.721Z,2.65
2022-12-04T23:36:10.241Z,1.58
2022-12-04T23:38:38.732Z,1.98
2022-12-04T23:41:06.004Z,1.05
2022-12-04T23:43:33.145Z,3.28
2022-12-04T23:46:03.359Z,2.20
2022-12-04T23:48:33.342Z,3.75
2022-12-04T23:51:00.602Z,1.77
2022-12-04T23:53:27.537Z,2.92
2022-12-04T23:56:08.435Z,2.33
2022-12-04T23:58:36.323Z,3.88
